OR323 / PH-OYI 7700 Squawk Report (15th of February, 2019)

Aircraft B763 Reg No. PH-OYI Age 19 years old
Model 767 Jet engines 2 First flight 22-01-00
Registered 06-10-10 Rollout N/A Delivered 01-02-00
Construction No. 29138 Line No. 0783 Series 304(ER)
ADSHEX 484D10 Airline name Arkefly Owner TUI AG
Airfield based Amsterdam-Schiphol~Noord-Holland~PH First tracked 2017-07-13 18:09:00

Flight history for PH-OYI

Route Flight No Date Playback
Gran Canaria (LPA) - Schiphol (AMS) OR550 2019-03-21 00:37:00
???? N/A 2019-03-20 16:51:00
Hato (CUR) - Schiphol (AMS) OR368 2019-03-20 11:05:00
Schiphol (AMS) - Flamingo (BON) - Hato (CUR) OR367 2019-03-19 13:53:00
???? OR360 2019-03-19 10:04:00
Schiphol (AMS) - Hato (CUR) OR359 2019-03-18 14:31:00
Hato (CUR) - Reina Beatrix Intl (AUA) - Schiphol (AMS) OR364 2019-03-18 09:59:00
Schiphol (AMS) - Hato (CUR) - Reina Beatrix Intl (AUA) OR363 2019-03-17 11:56:00
Juan Gualberto Gomez Intl (VRA) - Cancun Intl (CUN) - Schiphol (AMS) OR338 2019-03-17 08:04:00
Schiphol (AMS) - Juan Gualberto Gomez Intl (VRA) - Cancun Intl (CUN) OR337 2019-03-16 08:03:00
Hato (CUR) - Schiphol (AMS) OR366 2019-03-15 12:56:00
Schiphol (AMS) - Hato (CUR) - Flamingo (BON) OR365 2019-03-14 15:16:00
Reina Beatrix Intl (AUA) - Hato (CUR) - Schiphol (AMS) OR362 2019-03-14 11:03:00
Schiphol (AMS) - Reina Beatrix Intl (AUA) - Hato (CUR) OR361 2019-03-13 12:56:00
Flamingo (BON) - Hato (CUR) - Schiphol (AMS) OR368 2019-03-13 09:12:00
Schiphol (AMS) - Flamingo (BON) - Hato (CUR) OR367 2019-03-12 11:43:00
Hato (CUR) - Schiphol (AMS) OR360 2019-03-12 07:26:00
Schiphol (AMS) - Hato (CUR) OR359 2019-03-11 10:40:00
???? N/A 2019-03-10 15:04:00
Licenciado Gustavo Diaz Ordaz Intl (PVR) - Schiphol (AMS) OR324 2019-03-10 13:18:00
Time Lat Lon Altitude Heading Speed Vertical Rate
2019-02-15 12:26:39 GMT 52.368660 4.711958 0 123 200 64
2019-02-15 12:26:39 GMT 52.368660 4.711958 -450 123 200 64
2019-02-15 12:26:27 GMT 52.374107 4.711408 -350 123 200 64
2019-02-15 12:26:17 GMT 52.389748 4.713527 -175 123 200 64
2019-02-15 12:26:05 GMT 52.395615 4.714469 -50 123 200 64
2019-02-15 12:25:55 GMT 52.395615 4.714469 100 123 200 64
2019-02-15 12:25:44 GMT 52.400131 4.714626 275 123 200 64
2019-02-15 12:25:35 GMT 52.404739 4.714861 400 123 200 64
2019-02-15 12:25:26 GMT 52.407997 4.715175 525 123 200 64
2019-02-15 12:25:11 GMT 52.423313 4.716431 650 123 200 64
2019-02-15 12:24:59 GMT 52.428761 4.720276 825 123 200 64
2019-02-15 12:24:52 GMT 52.432671 4.719884 950 123 200 64
2019-02-15 12:24:47 GMT 52.439468 4.720276 1,075 123 200 64
2019-02-15 12:24:35 GMT 52.449894 4.721061 1,200 123 200 64
2019-02-15 12:24:23 GMT 52.456318 4.719177 1,300 123 200 64
2019-02-15 12:24:19 GMT 52.461487 4.719962 1,350 123 200 64
2019-02-15 12:24:14 GMT 52.462418 4.719805 1,500 123 200 64
2019-02-15 12:24:04 GMT 52.474659 4.723964 1,600 183 164 0
2019-02-15 12:23:40 GMT 52.474659 4.723964 1,575 123 200 64
2019-02-15 12:23:32 GMT 52.488300 4.721688 1,575 123 200 64
2019-02-15 12:23:25 GMT 52.500076 4.728673 1,575 123 200 64
2019-02-15 12:23:12 GMT 52.509712 4.735107 1,575 123 200 64
2019-02-15 12:23:04 GMT 52.515301 4.736285 1,575 123 200 64
2019-02-15 12:22:51 GMT 52.533409 4.737305 1,575 123 200 64
2019-02-15 12:22:40 GMT 52.533409 4.737305 1,575 123 200 64
2019-02-15 12:22:34 GMT 52.545280 4.734323 1,600 123 200 64
2019-02-15 12:22:23 GMT 52.545280 4.734323 1,575 123 200 64
2019-02-15 12:22:11 GMT 52.555519 4.733303 1,575 29 365 -1600
2019-02-15 12:22:05 GMT 52.559479 4.729614 1,575 29 365 -1600
2019-02-15 12:21:59 GMT 52.562412 4.723572 1,575 29 365 -1600
2019-02-15 12:21:52 GMT 52.577587 4.693909 1,575 29 365 -1600
2019-02-15 12:21:43 GMT 52.577587 4.693909 1,600 29 365 -1600
2019-02-15 12:21:31 GMT 52.582104 4.687474 1,600 29 365 -1600
2019-02-15 12:21:24 GMT 52.583500 4.679783 1,550 29 365 -1600
2019-02-15 12:21:13 GMT 52.571533 4.639369 1,625 29 365 -1600
2019-02-15 12:21:00 GMT 52.578426 4.632621 1,725 29 365 -1600
2019-02-15 12:20:46 GMT 52.584290 4.619908 1,775 29 365 -1600
2019-02-15 12:20:42 GMT 52.586201 4.612767 1,875 29 365 -1600
2019-02-15 12:20:24 GMT 52.584103 4.584673 1,975 29 365 -1600
2019-02-15 12:20:18 GMT 52.590015 4.571804 2,075 29 365 -1600
2019-02-15 12:20:10 GMT 52.581963 4.547555 2,175 29 365 -1600
2019-02-15 12:19:58 GMT 52.578705 4.543396 2,175 29 365 -1600
2019-02-15 12:19:45 GMT 52.564785 4.530134 2,250 29 365 -1600
2019-02-15 12:19:33 GMT 52.551285 4.516872 2,350 29 365 -1600
2019-02-15 12:19:26 GMT 52.544720 4.511300 2,450 29 365 -1600
2019-02-15 12:19:02 GMT 52.519115 4.487994 2,725 29 365 -1600
2019-02-15 12:18:43 GMT 52.497379 4.471122 3,150 29 365 -1600
2019-02-15 12:18:22 GMT 52.446262 4.423645 3,550 29 365 -1600
2019-02-15 12:18:03 GMT 52.414795 4.397906 3,975 29 365 -1600
2019-02-15 12:17:52 GMT 52.382717 4.372951 4,200 29 365 -1600
2019-02-15 12:17:29 GMT 52.382717 4.372951 4,600 29 365 -1600
2019-02-15 12:17:18 GMT 52.369545 4.374677 4,775 29 365 -1600
2019-02-15 12:17:03 GMT 52.351341 4.353254 5,025 29 365 -1600
2019-02-15 12:16:56 GMT 52.320061 4.326494 5,200 29 365 -1600
2019-02-15 12:16:27 GMT 52.320061 4.326494 5,450 29 365 -1600
2019-02-15 12:15:52 GMT 52.248791 4.317941 5,750 29 365 -1600
2019-02-15 12:15:34 GMT 52.241760 4.284589 5,800 29 365 -1600
2019-02-15 12:15:23 GMT 52.222626 4.274859 5,900 29 365 -1600
2019-02-15 12:14:52 GMT 52.193951 4.259321 6,150 29 365 -1600
2019-02-15 12:14:38 GMT 52.173233 4.245039 6,350 29 365 -1600
2019-02-15 12:14:25 GMT 52.153263 4.237191 6,450 29 365 -1600
2019-02-15 12:14:15 GMT 52.129196 4.235229 6,525 29 365 -1600
2019-02-15 12:13:57 GMT 52.122120 4.227304 6,700 29 365 -1600
2019-02-15 12:13:42 GMT 52.094330 4.211373 6,775 29 365 -1600
2019-02-15 12:13:18 GMT 52.039536 4.185713 6,950 29 365 -1600
2019-02-15 12:12:58 GMT 52.033440 4.182574 7,125 29 365 -1600
2019-02-15 12:12:17 GMT 51.954533 4.146554 7,575 29 365 -1600
2019-02-15 12:11:43 GMT 51.977901 4.159110 8,050 29 365 -1600
2019-02-15 12:11:29 GMT 51.962585 4.159816 8,200 29 365 -1600
2019-02-15 12:11:22 GMT 51.953091 4.154166 8,350 29 365 -1600
2019-02-15 12:11:09 GMT 51.934608 4.144906 8,450 29 365 -1600
2019-02-15 12:10:58 GMT 51.920315 4.135803 8,675 29 365 -1600
2019-02-15 12:10:49 GMT 51.895317 4.119324 8,875 29 365 -1600
2019-02-15 12:10:38 GMT 51.885307 4.109573 9,075 29 365 -1600
2019-02-15 12:10:31 GMT 51.865990 4.094620 9,175 29 365 -1600
2019-02-15 12:10:16 GMT 51.865990 4.094620 9,325 29 365 -1600
2019-02-15 12:10:10 GMT 51.859287 4.090500 9,425 29 365 -1600
2019-02-15 12:09:57 GMT 51.842712 4.074631 9,525 29 365 -1600
2019-02-15 12:09:44 GMT 51.823814 4.058228 9,700 28 369 -1792
2019-02-15 12:09:36 GMT 51.791599 4.031219 9,825 28 369 -1792
2019-02-15 12:09:22 GMT 51.778286 4.019928 9,925 28 369 -1792
2019-02-15 12:09:14 GMT 51.778286 4.019928 10,025 28 369 -1792
2019-02-15 12:09:06 GMT 51.768185 4.011612 10,125 28 369 -1792
2019-02-15 12:09:00 GMT 51.757988 4.001999 10,225 28 369 -1792
2019-02-15 12:08:53 GMT 51.749794 3.993378 10,275 28 369 -1792
2019-02-15 12:08:45 GMT 51.737694 3.982620 10,475 28 369 -1792
2019-02-15 12:08:37 GMT 51.724892 3.971786 10,700 28 369 -1792
2019-02-15 12:08:29 GMT 51.711807 3.960190 10,775 28 372 -1792
2019-02-15 12:08:21 GMT 51.702682 3.952179 11,075 26 429 -2160
2019-02-15 12:08:13 GMT 51.690811 3.941422 11,375 26 429 -2160
2019-02-15 12:08:01 GMT 51.672985 3.925629 11,675 26 429 -2160
2019-02-15 12:07:52 GMT 51.657715 3.912430 11,950 26 429 -2160
2019-02-15 12:07:45 GMT 51.645378 3.901901 12,250 26 429 -2160
2019-02-15 12:06:42 GMT 51.547897 3.819580 13,000 26 385 -640
2019-02-15 12:06:28 GMT 51.527416 3.800735 13,000 26 385 -640
2019-02-15 12:06:20 GMT 51.516521 3.791504 13,025 26 385 -640
2019-02-15 12:06:11 GMT 51.501392 3.778000 13,000 26 385 -640
2019-02-15 12:06:05 GMT 51.493710 3.771362 13,000 26 385 -640
2019-02-15 12:05:58 GMT 51.480583 3.761063 13,000 25 389 -1024
2019-02-15 12:05:45 GMT 51.462708 3.744812 13,000 25 389 -1024
2019-02-15 12:05:40 GMT 51.454422 3.738632 13,100 24 379 -896
2019-02-15 12:05:31 GMT 51.439106 3.729401 13,125 24 379 -896
2019-02-15 12:05:26 GMT 51.431099 3.723221 13,275 24 379 -896
2019-02-15 12:05:17 GMT 51.415596 3.710403 13,425 24 379 -896
2019-02-15 12:05:05 GMT 51.397816 3.695831 13,625 24 379 -896
2019-02-15 12:04:59 GMT 51.386688 3.686676 13,750 24 379 -896
2019-02-15 12:04:52 GMT 51.368813 3.671722 13,800 24 379 -896
2019-02-15 12:04:47 GMT 51.368813 3.671722 13,900 24 379 -896
2019-02-15 12:04:42 GMT 51.360806 3.664932 14,025 24 379 -896
2019-02-15 12:04:35 GMT 51.348423 3.652573 14,175 24 379 -896
2019-02-15 12:04:27 GMT 51.335808 3.635788 14,275 24 379 -896
2019-02-15 12:04:21 GMT 51.326405 3.631134 14,300 24 379 -896
2019-02-15 12:04:12 GMT 51.310017 3.621292 14,500 26 392 -896
2019-02-15 12:04:03 GMT 51.295677 3.611832 14,650 26 392 -896
2019-02-15 12:03:57 GMT 51.285484 3.606873 14,775 27 389 -960
2019-02-15 12:03:51 GMT 51.278500 3.601913 14,800 27 389 -960
2019-02-15 12:03:44 GMT 51.267792 3.593292 15,000 26 398 -1344
2019-02-15 12:03:39 GMT 51.258484 3.585510 15,025 26 398 -1344
2019-02-15 12:03:32 GMT 51.248985 3.577576 15,125 26 398 -1344
2019-02-15 12:03:26 GMT 51.229481 3.562012 15,250 26 402 -1856
2019-02-15 12:03:20 GMT 51.229481 3.562012 15,325 26 402 -1856
2019-02-15 12:03:11 GMT 51.214493 3.550415 15,475 26 402 -1856
2019-02-15 12:03:03 GMT 51.201595 3.539810 15,575 26 402 -1856
2019-02-15 12:02:58 GMT 51.191818 3.531570 15,725 26 402 -1856
2019-02-15 12:02:51 GMT 51.181812 3.523483 15,950 26 402 -1856
2019-02-15 12:02:45 GMT 51.168404 3.512802 16,125 26 404 -1984
2019-02-15 12:02:36 GMT 51.155182 3.502731 16,450 26 405 -2112
2019-02-15 12:02:27 GMT 51.141914 3.492126 16,600 26 405 -2112
2019-02-15 12:02:22 GMT 51.130280 3.482895 16,725 26 405 -2112
2019-02-15 12:02:16 GMT 51.121803 3.476868 17,050 28 408 -1920
2019-02-15 12:02:08 GMT 51.109886 3.468399 17,250 28 408 -1920
2019-02-15 12:02:00 GMT 51.096622 3.457413 17,525 28 408 -1920
2019-02-15 12:01:53 GMT 51.083401 3.446426 17,825 28 408 -1920
2019-02-15 12:01:47 GMT 51.071716 3.436737 18,025 28 408 -1920
2019-02-15 12:01:40 GMT 51.061707 3.429031 18,225 28 408 -1920
2019-02-15 12:01:33 GMT 51.048580 3.417969 18,350 28 408 -1920
2019-02-15 12:01:29 GMT 51.043598 3.413696 18,700 26 429 -2160
2019-02-15 12:00:26 GMT 50.938717 3.326874 20,525 28 426 -1984
2019-02-15 12:00:21 GMT 50.926620 3.316683 21,200 28 426 -1984
2019-02-15 12:00:14 GMT 50.919724 3.310928 21,100 28 426 -1920
2019-02-15 12:00:09 GMT 50.909481 3.302078 21,225 30 457 64
2019-02-15 12:00:03 GMT 50.897610 3.291397 21,525 30 457 64
2019-02-15 11:59:58 GMT 50.890579 3.284912 21,650 30 457 64
2019-02-15 11:59:49 GMT 50.873917 3.269119 21,950 30 457 64
2019-02-15 11:59:41 GMT 50.861904 3.258820 22,100 30 457 64
2019-02-15 11:59:35 GMT 50.850777 3.249283 22,325 30 457 64
2019-02-15 11:59:28 GMT 50.827782 3.231506 22,675 26 445 -1980
2019-02-15 11:59:22 GMT 50.827782 3.231506 22,825 26 445 -1980
2019-02-15 11:59:16 GMT 50.803482 3.212204 23,025 26 445 -1980
2019-02-15 11:59:08 GMT 50.780296 3.194580 23,325 26 445 -1980
2019-02-15 11:58:55 GMT 50.780296 3.194580 23,575 26 445 -1980
2019-02-15 11:58:49 GMT 50.769592 3.186493 23,825 26 445 -1980
2019-02-15 11:57:49 GMT 50.670879 3.112208 25,875 26 445 -1980
2019-02-15 11:57:30 GMT 50.636261 3.085301 26,650 26 444 -1860
2019-02-15 11:56:59 GMT 50.578369 3.040713 27,725 27 447 -1980
2019-02-15 11:56:44 GMT 50.520607 2.994040 28,175 28 442 -2160
2019-02-15 11:56:28 GMT 50.498520 2.975582 28,825 29 468 -1920
2019-02-15 11:56:16 GMT 50.498520 2.975582 29,150 30 465 -1500
2019-02-15 11:56:06 GMT 50.479939 2.958428 29,600 30 475 -1200
2019-02-15 11:55:45 GMT 50.441422 2.923359 30,325 29 469 -1020
2019-02-15 11:55:20 GMT 50.392296 2.878862 30,875 29 463 -840
2019-02-15 11:54:55 GMT 50.346813 2.838085 31,250 30 461 -1260
2019-02-15 11:54:41 GMT 50.320976 2.814510 31,425 33 459 -960
2019-02-15 11:54:27 GMT 50.294407 2.791648 31,725 30 451 -900
2019-02-15 11:54:03 GMT 50.253803 2.747601 32,050 30 464 -1140
2019-02-15 11:53:52 GMT 50.235840 2.721068 32,250 22 463 -900
2019-02-15 11:53:42 GMT 50.213451 2.716943 32,425 28 463 -960
2019-02-15 11:53:22 GMT 50.176270 2.684622 32,775 28 457 -960
2019-02-15 11:53:12 GMT 50.157089 2.668326 32,900 29 456 -1080
2019-02-15 11:52:55 GMT 50.128700 2.634317 33,200 28 466 -720
2019-02-15 11:52:29 GMT 50.075886 2.595216 33,625 29 424 -360
2019-02-15 11:52:18 GMT 50.055603 2.585701 33,950 34 462 -60
2019-02-15 11:52:06 GMT 50.035416 2.559348 33,925 30 443 0
2019-02-15 11:51:50 GMT 50.004551 2.537585 34,025 33 436 0
2019-02-15 11:51:38 GMT 49.988926 2.517546 34,025 28 480 0
2019-02-15 11:51:28 GMT 49.966625 2.501925 34,025 33 455 0
2019-02-15 11:51:14 GMT 49.915726 2.453345 34,000 47 428 0
2019-02-15 11:51:00 GMT 49.915726 2.453345 34,025 29 450 0
2019-02-15 11:50:39 GMT 49.885082 2.412261 34,000 29 454 0
2019-02-15 11:49:48 GMT 49.784981 2.339127 34,000 29 454 0
2019-02-15 11:49:36 GMT 49.752609 2.309579 34,000 29 454 0
2019-02-15 11:48:28 GMT 49.638165 2.209977 34,000 29 454 0
2019-02-15 11:48:04 GMT 49.593857 2.171349 34,000 29 453 0
2019-02-15 11:47:34 GMT 49.539497 2.123856 34,000 29 453 0
2019-02-15 11:47:18 GMT 49.500111 2.089035 34,000 27 460 0
2019-02-15 11:47:09 GMT 49.369301 1.978334 34,000 27 460 0
2019-02-15 11:46:09 GMT 49.263634 1.886148 34,000 27 460 0
2019-02-15 11:45:03 GMT 49.263634 1.886148 34,000 27 460 0
2019-02-15 11:44:42 GMT 49.224384 1.852483 34,000 29 436 0
2019-02-15 11:44:23 GMT 49.190907 1.823878 34,000 29 451 0
2019-02-15 11:44:08 GMT 49.161926 1.799080 34,000 29 444 0
2019-02-15 11:43:50 GMT 49.131218 1.773767 34,000 28 447 0
2019-02-15 11:42:18 GMT 48.964073 1.631134 34,000 28 449 0
2019-02-15 11:41:49 GMT 48.807747 1.500813 34,000 28 447 0
2019-02-15 11:40:52 GMT 48.807747 1.500813 34,000 28 447 0
2019-02-15 11:40:41 GMT 48.786427 1.483271 34,000 28 447 0
2019-02-15 11:40:23 GMT 48.754963 1.457629 34,000 29 453 0
2019-02-15 11:39:51 GMT 48.696957 1.409273 34,000 33 453 0
2019-02-15 11:39:01 GMT 48.574783 1.308911 34,000 66 382 0
2019-02-15 11:38:45 GMT 48.574783 1.308911 34,000 66 382 0
2019-02-15 11:37:46 GMT 48.469376 1.209421 34,000 66 382 0
2019-02-15 11:37:25 GMT 48.435055 1.170613 34,000 83 365 0
2019-02-15 11:36:59 GMT 48.378674 0.893292 34,000 140 420 0
2019-02-15 11:35:37 GMT 48.378674 0.893292 34,000 140 420 0
2019-02-15 11:35:14 GMT 48.409130 0.838721 34,000 149 410 0
2019-02-15 11:34:51 GMT 48.446407 0.801063 34,000 160 410 0
2019-02-15 11:34:40 GMT 48.487396 0.781877 34,000 170 433 -420
2019-02-15 11:34:28 GMT 48.487396 0.781877 34,000 178 429 -840
2019-02-15 11:34:16 GMT 48.537064 0.779719 34,025 190 426 -900
2019-02-15 11:34:03 GMT 48.537064 0.779719 34,075 195 425 -960
2019-02-15 11:33:48 GMT 48.566719 0.788080 34,425 206 431 -540
2019-02-15 11:33:33 GMT 48.593674 0.805145 34,650 215 440 -240
2019-02-15 11:33:22 GMT 48.613113 0.823207 34,750 224 438 -120
2019-02-15 11:33:07 GMT 48.636848 0.851726 34,875 235 449 0
2019-02-15 11:32:51 GMT 48.658241 0.889401 35,000 240 447 0
2019-02-15 11:32:23 GMT 48.686932 0.964454 35,000 241 464 0
2019-02-15 11:32:10 GMT 48.700130 1.001396 35,000 241 432 0
2019-02-15 11:32:00 GMT 48.710911 1.029972 35,000 241 456 0
2019-02-15 11:31:50 GMT 48.719315 1.054589 35,000 241 449 0
2019-02-15 11:31:39 GMT 48.732056 1.089019 35,000 241 435 0
2019-02-15 11:31:09 GMT 48.760921 1.168427 35,000 241 447 0
2019-02-15 11:30:52 GMT 48.777100 1.215154 35,000 241 442 -60
2019-02-15 11:30:39 GMT 48.789482 1.250450 35,025 238 455 0
2019-02-15 11:30:29 GMT 48.800339 1.277833 35,025 242 449 0
2019-02-15 11:30:19 GMT 48.809647 1.306534 35,025 240 445 0
2019-02-15 11:30:08 GMT 48.820736 1.336457 35,025 241 461 0
2019-02-15 11:29:58 GMT 48.831078 1.364857 35,000 241 443 0
2019-02-15 11:29:42 GMT 48.846531 1.407940 35,000 241 446 0
2019-02-15 11:29:31 GMT 48.857342 1.438223 35,000 241 439 0
2019-02-15 11:28:45 GMT 48.919926 1.613837 35,000 257 435 0
2019-02-15 11:28:27 GMT 48.919926 1.613837 35,025 257 435 0
2019-02-15 11:27:41 GMT 48.971416 1.754705 35,025 248 440 128
2019-02-15 11:27:30 GMT 48.983616 1.790699 35,000 248 440 128
2019-02-15 11:27:22 GMT 48.989109 1.807468 35,000 248 440 128
2019-02-15 11:27:08 GMT 49.010010 1.871796 35,000 248 440 128
2019-02-15 11:27:00 GMT 49.010010 1.871796 35,000 248 440 128
2019-02-15 11:26:48 GMT 49.029610 1.937280 35,000 248 440 128
2019-02-15 11:26:37 GMT 49.029610 1.937280 35,025 248 440 128
2019-02-15 11:26:31 GMT 49.033707 1.951519 35,025 248 440 128
2019-02-15 11:26:15 GMT 49.048882 2.006812 35,025 259 444 0
2019-02-15 11:26:10 GMT 49.050884 2.015774 35,025 259 444 0
2019-02-15 11:25:45 GMT 49.070202 2.082704 35,000 259 444 0
2019-02-15 11:25:31 GMT 49.082397 2.125565 35,000 259 444 0
2019-02-15 11:25:25 GMT 49.086494 2.140382 35,000 257 445 704
2019-02-15 11:25:14 GMT 49.095200 2.172185 35,000 257 445 704
2019-02-15 11:25:03 GMT 49.103485 2.204421 35,000 257 445 704
2019-02-15 11:24:50 GMT 49.114704 2.243379 35,000 257 445 704
2019-02-15 11:24:43 GMT 49.119919 2.260798 35,000 257 445 704
2019-02-15 11:24:37 GMT 49.125320 2.278723 35,000 257 445 704
2019-02-15 11:24:31 GMT 49.130116 2.295492 35,000 257 445 704
2019-02-15 11:24:25 GMT 49.136398 2.317971 35,000 257 445 704
2019-02-15 11:24:20 GMT 49.141102 2.334667 35,000 257 445 704
2019-02-15 11:24:12 GMT 49.145988 2.351436 35,000 257 445 704
2019-02-15 11:24:07 GMT 49.150879 2.368204 35,000 257 445 704
2019-02-15 11:24:01 GMT 49.154182 2.379624 35,000 257 445 704
2019-02-15 11:23:54 GMT 49.159817 2.399790 35,000 257 445 704
2019-02-15 11:23:49 GMT 49.163818 2.414029 35,000 257 445 704
2019-02-15 11:23:41 GMT 49.170799 2.439832 35,000 257 445 704
2019-02-15 11:23:35 GMT 49.174198 2.453276 35,000 257 445 704
2019-02-15 11:23:29 GMT 49.179787 2.473297 35,000 257 445 704
2019-02-15 11:23:25 GMT 49.184021 2.487608 35,000 257 445 704
2019-02-15 11:23:19 GMT 49.188118 2.502064 35,000 257 445 704
2019-02-15 11:23:12 GMT 49.194496 2.521001 35,000 257 445 704
2019-02-15 11:23:06 GMT 49.200920 2.542901 35,025 257 445 704
2019-02-15 11:22:58 GMT 49.205017 2.560971 35,025 257 445 704
2019-02-15 11:22:52 GMT 49.216702 2.602097 35,025 257 445 704
2019-02-15 11:22:43 GMT 49.216702 2.602097 35,000 257 445 704
2019-02-15 11:22:36 GMT 49.220009 2.622118 35,000 257 445 704
2019-02-15 11:22:30 GMT 49.223778 2.646332 35,000 257 445 704
2019-02-15 11:22:24 GMT 49.225685 2.658619 35,000 257 439 0
2019-02-15 11:22:17 GMT 49.229179 2.680230 35,000 257 439 0
2019-02-15 11:22:09 GMT 49.233089 2.705094 35,000 257 439 0
2019-02-15 11:22:03 GMT 49.235695 2.722296 35,000 257 444 0
2019-02-15 11:21:55 GMT 49.239281 2.746076 35,000 257 444 0
2019-02-15 11:21:48 GMT 49.243423 2.769277 35,000 257 444 0
2019-02-15 11:21:39 GMT 49.247101 2.793780 35,000 257 444 0
2019-02-15 11:21:34 GMT 49.250217 2.811922 35,000 257 444 0
2019-02-15 11:21:26 GMT 49.253586 2.833487 35,000 257 444 0
2019-02-15 11:21:19 GMT 49.257202 2.858469 35,000 257 444 0
2019-02-15 11:21:12 GMT 49.259716 2.876972 35,000 257 444 0
2019-02-15 11:21:07 GMT 49.263302 2.898005 35,000 257 444 0
2019-02-15 11:21:02 GMT 49.265022 2.910220 35,000 257 444 0
2019-02-15 11:20:56 GMT 49.267399 2.928507 35,000 257 444 0
2019-02-15 11:20:48 GMT 49.270191 2.949395 35,000 257 444 0
2019-02-15 11:20:38 GMT 49.275219 2.986113 35,000 257 444 0
2019-02-15 11:20:33 GMT 49.276802 2.998617 35,000 257 444 0
2019-02-15 11:20:27 GMT 49.278801 3.014012 35,000 257 444 0
2019-02-15 11:20:22 GMT 49.286297 3.074293 35,000 257 444 0
2019-02-15 11:20:09 GMT 49.288902 3.092001 35,000 257 444 0
2019-02-15 11:20:03 GMT 49.288902 3.092001 35,000 257 444 0
2019-02-15 11:19:54 GMT 49.291885 3.113395 35,000 257 450 -128
2019-02-15 11:19:46 GMT 49.298492 3.159870 35,000 259 444 0
2019-02-15 11:19:39 GMT 49.302402 3.183433 35,000 259 444 0
2019-02-15 11:19:32 GMT 49.302402 3.183433 35,000 259 444 0
2019-02-15 11:19:26 GMT 49.307804 3.216464 35,000 259 444 0
2019-02-15 11:19:20 GMT 49.307804 3.216464 35,000 259 444 0
2019-02-15 11:19:12 GMT 49.312508 3.246894 35,025 259 444 0
2019-02-15 11:19:05 GMT 49.317394 3.276817 35,025 259 444 0
2019-02-15 11:19:00 GMT 49.317394 3.276817 35,025 259 444 0
2019-02-15 11:18:53 GMT 49.320793 3.301970 35,025 259 444 0
2019-02-15 11:18:44 GMT 49.325214 3.328930 35,000 259 444 0
2019-02-15 11:18:39 GMT 49.327587 3.340494 35,000 259 444 0
2019-02-15 11:18:32 GMT 49.331501 3.363479 35,000 259 444 0
2019-02-15 11:18:24 GMT 49.335178 3.388126 35,000 259 444 0
2019-02-15 11:18:18 GMT 49.338017 3.406629 35,000 259 444 0
2019-02-15 11:18:12 GMT 49.340809 3.425132 35,000 259 444 0
2019-02-15 11:18:06 GMT 49.343788 3.446671 35,000 259 441 -128
2019-02-15 11:18:01 GMT 49.345699 3.459320 35,000 259 441 -128
2019-02-15 11:17:53 GMT 49.351192 3.505723 35,000 258 437 0
2019-02-15 11:17:45 GMT 49.351192 3.505723 35,000 258 437 0
2019-02-15 11:17:37 GMT 49.354076 3.529430 35,025 258 444 0
2019-02-15 11:17:30 GMT 49.357384 3.553933 35,025 258 444 0
2019-02-15 11:17:24 GMT 49.360085 3.573881 35,000 258 438 64
2019-02-15 11:17:19 GMT 49.361805 3.585880 35,000 257 439 64
2019-02-15 11:17:14 GMT 49.363995 3.600914 35,025 257 439 64
2019-02-15 11:17:10 GMT 49.366322 3.615731 35,025 258 440 64
2019-02-15 11:17:01 GMT 49.370277 3.643630 35,025 257 439 0
2019-02-15 11:16:56 GMT 49.372513 3.658520 35,025 258 441 0
2019-02-15 11:16:48 GMT 49.379124 3.700586 35,000 258 439 64
2019-02-15 11:16:42 GMT 49.379124 3.700586 35,000 258 439 64
2019-02-15 11:16:36 GMT 49.381592 3.715620 35,000 258 439 64
2019-02-15 11:16:28 GMT 49.390991 3.785730 35,000 258 439 64
2019-02-15 11:16:15 GMT 49.390991 3.785730 35,025 258 439 64
2019-02-15 11:16:10 GMT 49.392902 3.797872 35,025 258 439 64
2019-02-15 11:16:02 GMT 49.398907 3.838493 35,025 258 439 64
2019-02-15 11:15:57 GMT 49.398907 3.838493 35,000 258 442 64
2019-02-15 11:15:49 GMT 49.402306 3.858586 35,000 258 442 64
2019-02-15 11:15:41 GMT 49.406307 3.885691 35,000 258 444 0
2019-02-15 11:15:37 GMT 49.408588 3.900869 35,000 258 441 0
2019-02-15 11:15:31 GMT 49.410686 3.917204 35,000 258 441 0
2019-02-15 11:15:26 GMT 49.412407 3.929275 35,000 257 435 0
2019-02-15 11:14:26 GMT 49.436352 4.096471 35,000 257 435 0
2019-02-15 11:13:26 GMT 49.462204 4.279183 35,025 257 435 0
2019-02-15 11:13:14 GMT 49.467625 4.317003 35,000 257 434 0
2019-02-15 11:13:00 GMT 49.474602 4.371519 35,025 259 440 64
2019-02-15 11:12:53 GMT 49.478001 4.393418 35,000 259 440 64
2019-02-15 11:12:47 GMT 49.481213 4.416281 35,000 259 440 64
2019-02-15 11:12:38 GMT 49.484283 4.437883 35,000 259 440 64
2019-02-15 11:12:31 GMT 49.489918 4.470471 35,000 259 440 64
2019-02-15 11:12:18 GMT 49.494713 4.500609 35,025 259 440 64
2019-02-15 11:12:12 GMT 49.496201 4.519389 35,025 258 442 64
2019-02-15 11:12:05 GMT 49.502300 4.561702 35,025 258 442 64
2019-02-15 11:11:59 GMT 49.528271 4.743307 35,000 257 432 0
2019-02-15 11:10:53 GMT 49.528271 4.743307 35,000 257 432 0
2019-02-15 11:10:17 GMT 49.544125 4.852616 35,000 257 429 0
2019-02-15 11:10:03 GMT 49.549397 4.892548 35,000 257 433 0
2019-02-15 11:09:32 GMT 49.569710 5.030838 35,000 257 433 360
2019-02-15 11:09:17 GMT 49.569710 5.030838 35,000 257 433 360
2019-02-15 11:09:00 GMT 49.576824 5.082544 34,975 256 440 660
2019-02-15 11:08:40 GMT 49.585899 5.142566 35,000 255 440 780
2019-02-15 11:08:15 GMT 49.606716 5.271784 34,600 254 435 240
2019-02-15 11:07:58 GMT 49.606716 5.271784 34,400 254 435 240
2019-02-15 11:07:45 GMT 49.622791 5.363111 34,125 254 433 0
2019-02-15 11:07:27 GMT 49.637360 5.442590 34,000 254 422 0
2019-02-15 11:07:01 GMT 49.637360 5.442590 34,000 254 422 0
2019-02-15 11:06:50 GMT 49.642639 5.474771 34,000 254 428 0
2019-02-15 11:06:36 GMT 49.649967 5.515360 34,000 254 444 0
2019-02-15 11:06:26 GMT 49.655575 5.545326 34,000 257 454 0
2019-02-15 11:06:08 GMT 49.664860 5.600604 34,025 254 444 0
2019-02-15 11:05:49 GMT 49.672432 5.662614 34,000 247 389 0
2019-02-15 11:05:37 GMT 49.681725 5.694067 34,000 255 417 0
2019-02-15 11:05:27 GMT 49.687244 5.724725 34,000 255 410 0
2019-02-15 11:05:11 GMT 49.695103 5.770515 34,025 254 440 0
2019-02-15 11:04:59 GMT 49.701649 5.806925 34,025 254 441 0
2019-02-15 11:04:48 GMT 49.707710 5.840903 34,025 255 422 0
2019-02-15 11:04:29 GMT 49.716675 5.894374 34,000 254 440 0
2019-02-15 11:04:13 GMT 49.725304 5.943020 34,000 254 430 0
2019-02-15 11:03:58 GMT 49.733215 5.988461 34,000 255 455 0
2019-02-15 11:03:06 GMT 49.766830 6.181389 34,000 261 431 0
2019-02-15 11:02:53 GMT 49.766830 6.181389 34,025 256 430 0
2019-02-15 11:02:43 GMT 49.772041 6.212517 34,000 256 425 0
2019-02-15 11:02:27 GMT 49.779896 6.259808 34,000 258 428 0
2019-02-15 11:01:54 GMT 49.795200 6.356300 34,000 259 430 0
2019-02-15 11:01:31 GMT 49.808613 6.444372 34,000 260 424 0
2019-02-15 11:01:20 GMT 49.812199 6.477777 34,000 261 432 0
2019-02-15 11:01:08 GMT 49.816109 6.515486 34,000 261 425 0
2019-02-15 11:01:03 GMT 49.818111 6.533599 34,000 261 425 0
2019-02-15 11:00:57 GMT 49.819695 6.548668 34,000 261 425 0
2019-02-15 11:00:48 GMT 49.822998 6.578732 34,000 262 439 0
2019-02-15 11:00:41 GMT 49.825279 6.599591 34,000 262 439 0
2019-02-15 11:00:32 GMT 49.827885 6.625869 34,000 262 439 0
2019-02-15 11:00:25 GMT 49.829609 6.641013 34,000 262 439 0
2019-02-15 11:00:17 GMT 49.833195 6.670631 34,000 262 439 0
2019-02-15 11:00:11 GMT 49.834591 6.683622 34,000 260 424 0
2019-02-15 11:00:03 GMT 49.837292 6.707673 34,000 260 425 0
2019-02-15 10:59:51 GMT 49.841293 6.747907 34,000 260 426 0
2019-02-15 10:59:41 GMT 49.845112 6.782202 34,000 260 431 0
2019-02-15 10:59:26 GMT 49.850277 6.828300 34,025 260 430 0
2019-02-15 10:59:21 GMT 49.851486 6.840697 34,000 260 430 0
2019-02-15 10:59:06 GMT 49.856003 6.883083 34,000 260 429 0
2019-02-15 10:58:58 GMT 49.858379 6.907802 34,000 260 429 0
2019-02-15 10:58:46 GMT 49.862801 6.951079 34,000 260 429 0
2019-02-15 10:58:32 GMT 49.866898 6.990571 34,000 260 429 0
2019-02-15 10:58:26 GMT 49.868481 7.005566 34,000 260 429 0
2019-02-15 10:58:21 GMT 49.870201 7.020264 34,000 260 429 0
2019-02-15 10:58:13 GMT 49.873180 7.046764 34,000 260 429 0
2019-02-15 10:58:09 GMT 49.874905 7.061685 34,000 260 429 0
2019-02-15 10:58:04 GMT 49.876392 7.076903 34,000 260 429 0
2019-02-15 10:57:57 GMT 49.878117 7.092417 34,000 260 429 0
2019-02-15 10:57:45 GMT 49.881981 7.132428 34,000 260 434 0
2019-02-15 10:57:40 GMT 49.883423 7.144676 34,000 260 434 0
2019-02-15 10:57:34 GMT 49.884914 7.162492 34,000 260 434 0
2019-02-15 10:57:28 GMT 49.887379 7.187286 34,000 260 427 0
2019-02-15 10:57:11 GMT 49.892780 7.239693 34,000 260 438 0
2019-02-15 10:57:04 GMT 49.898598 7.298114 34,000 260 433 0
2019-02-15 10:56:52 GMT 49.898598 7.298114 34,000 261 428 0
2019-02-15 10:56:36 GMT 49.903580 7.344212 34,025 260 420 0
2019-02-15 10:56:29 GMT 49.906185 7.368634 34,025 260 420 0
2019-02-15 10:56:16 GMT 49.909817 7.402484 34,025 261 434 0
2019-02-15 10:56:10 GMT 49.916126 7.454352 34,025 261 436 0
2019-02-15 10:55:53 GMT 49.916126 7.454352 34,000 261 436 0
2019-02-15 10:55:41 GMT 49.922016 7.512199 34,025 260 437 0
2019-02-15 10:55:36 GMT 49.924110 7.533800 34,025 260 437 0
2019-02-15 10:55:21 GMT 49.928299 7.577300 34,000 263 410 0
2019-02-15 10:55:14 GMT 49.930393 7.598679 34,000 261 437 0
2019-02-15 10:55:00 GMT 49.934116 7.638319 34,025 261 441 64
2019-02-15 10:54:53 GMT 49.936119 7.660069 34,000 261 441 64
2019-02-15 10:54:40 GMT 49.939892 7.696665 34,025 261 441 64
2019-02-15 10:54:28 GMT 49.943707 7.735117 34,025 261 441 64
2019-02-15 10:54:17 GMT 49.948689 7.780176 34,025 262 432 64
2019-02-15 10:54:02 GMT 49.950535 7.797282 34,000 261 428 0
2019-02-15 10:53:49 GMT 49.954369 7.837735 34,000 261 435 0
2019-02-15 10:53:37 GMT 49.959816 7.895681 34,000 261 436 0
2019-02-15 10:53:31 GMT 49.963848 7.934336 34,000 260 419 0
2019-02-15 10:53:18 GMT 49.963848 7.934336 34,000 260 419 0
2019-02-15 10:53:08 GMT 49.969589 7.991069 34,000 260 459 0
2019-02-15 10:52:59 GMT 49.971920 8.014675 34,025 262 440 0
2019-02-15 10:52:46 GMT 49.975178 8.051865 34,025 262 432 -60
2019-02-15 10:52:33 GMT 49.977524 8.074043 34,025 262 441 64
2019-02-15 10:52:22 GMT 49.982021 8.129512 34,025 261 439 0
2019-02-15 10:52:15 GMT 49.983398 8.145712 34,025 261 435 0
2019-02-15 10:51:59 GMT 49.987885 8.205006 34,000 260 436 0
2019-02-15 10:51:43 GMT 49.992420 8.228381 34,000 260 432 0
2019-02-15 10:51:30 GMT 49.996159 8.266070 34,000 261 424 0
2019-02-15 10:51:20 GMT 50.001842 8.329947 34,000 261 445 0
2019-02-15 10:51:10 GMT 50.001842 8.329947 34,000 260 407 -60
2019-02-15 10:51:00 GMT 50.005207 8.361163 34,000 261 405 0
2019-02-15 10:50:49 GMT 50.008160 8.392979 34,000 261 462 0
2019-02-15 10:50:38 GMT 50.011051 8.429268 34,025 259 424 60
2019-02-15 10:50:27 GMT 50.014938 8.462318 34,025 261 439 0
2019-02-15 10:50:17 GMT 50.017864 8.493510 34,000 260 402 0
2019-02-15 10:50:07 GMT 50.020977 8.523477 34,000 261 418 0
2019-02-15 10:49:56 GMT 50.023483 8.558360 34,000 260 428 0
2019-02-15 10:49:44 GMT 50.027706 8.594552 34,000 261 394 0
2019-02-15 10:49:32 GMT 50.030968 8.628240 34,000 270 434 0
2019-02-15 10:49:21 GMT 50.034336 8.662739 34,000 261 484 0
2019-02-15 10:49:11 GMT 50.037647 8.697280 34,000 261 437 0
2019-02-15 10:49:01 GMT 50.040432 8.728165 34,000 262 442 0
2019-02-15 10:48:50 GMT 50.043682 8.762831 34,000 263 434 0
2019-02-15 10:48:24 GMT 50.050323 8.843684 34,000 263 437 0
2019-02-15 10:48:02 GMT 50.055573 8.914881 34,025 264 422 0
2019-02-15 10:47:51 GMT 50.057693 8.948186 34,000 265 427 0
2019-02-15 10:47:40 GMT 50.059299 8.979684 34,025 266 443 0
2019-02-15 10:47:29 GMT 50.060169 9.014458 34,000 268 439 0
2019-02-15 10:47:18 GMT 50.061623 9.051642 34,000 269 426 0
2019-02-15 10:47:05 GMT 50.062061 9.091550 34,000 268 433 0
2019-02-15 10:46:34 GMT 50.064091 9.208325 34,000 269 438 0
2019-02-15 10:46:25 GMT 50.064091 9.235568 34,000 269 438 0
2019-02-15 10:46:12 GMT 50.064278 9.272684 34,025 269 438 0
2019-02-15 10:46:06 GMT 50.064510 9.294879 34,000 268 436 0
2019-02-15 10:45:51 GMT 50.064419 9.342536 34,025 268 436 0
2019-02-15 10:45:42 GMT 50.064606 9.372971 34,025 268 438 0
2019-02-15 10:45:36 GMT 50.064884 9.388337 34,025 267 444 0
2019-02-15 10:45:30 GMT 50.065117 9.406821 34,000 268 437 0
2019-02-15 10:45:25 GMT 50.065582 9.426418 34,000 268 437 0
2019-02-15 10:45:18 GMT 50.065907 9.442304 34,000 268 437 0
2019-02-15 10:45:12 GMT 50.066513 9.467171 34,000 268 437 0
2019-02-15 10:45:06 GMT 50.067120 9.482834 34,000 268 437 0
2019-02-15 10:45:02 GMT 50.067818 9.501466 34,000 269 439 0
2019-02-15 10:44:52 GMT 50.068607 9.523513 34,000 269 439 0
2019-02-15 10:44:43 GMT 50.069817 9.554394 34,000 269 439 0
2019-02-15 10:44:36 GMT 50.070423 9.576292 34,025 269 439 0
2019-02-15 10:44:31 GMT 50.070702 9.592326 34,000 267 444 0
2019-02-15 10:44:24 GMT 50.071308 9.617194 34,000 267 444 0
2019-02-15 10:44:16 GMT 50.071819 9.639167 34,025 267 428 0
2019-02-15 10:44:11 GMT 50.071121 9.655498 34,025 267 428 0
2019-02-15 10:44:00 GMT 50.071678 9.687418 34,025 268 434 0
2019-02-15 10:43:54 GMT 50.072285 9.709316 34,025 268 434 0
2019-02-15 10:43:46 GMT 50.072517 9.734481 34,000 268 434 0
2019-02-15 10:43:38 GMT 50.075497 9.790303 34,000 268 434 0
2019-02-15 10:43:29 GMT 50.075497 9.790303 34,000 268 435 0
2019-02-15 10:43:12 GMT 50.077080 9.839667 34,000 268 435 0
2019-02-15 10:43:08 GMT 50.077499 9.852212 34,000 268 435 0
2019-02-15 10:43:01 GMT 50.078293 9.872181 34,000 268 435 0
2019-02-15 10:42:54 GMT 50.078896 9.892595 34,000 268 435 0
2019-02-15 10:42:46 GMT 50.079781 9.917388 34,000 268 435 0
2019-02-15 10:42:41 GMT 50.080200 9.932977 34,000 268 435 0
2019-02-15 10:42:34 GMT 50.080620 9.958290 34,000 268 435 0
2019-02-15 10:42:29 GMT 50.081085 9.970835 34,000 268 435 0
2019-02-15 10:42:22 GMT 50.081688 9.999414 34,000 268 435 0
2019-02-15 10:42:15 GMT 50.082714 10.036011 34,000 268 435 0
2019-02-15 10:42:08 GMT 50.082714 10.036011 34,000 268 435 0
2019-02-15 10:42:03 GMT 50.083317 10.057909 34,000 268 435 0
2019-02-15 10:41:57 GMT 50.084015 10.076764 34,000 268 435 0
2019-02-15 10:41:52 GMT 50.084202 10.089235 34,025 268 434 0
2019-02-15 10:41:47 GMT 50.085320 10.126722 34,025 268 434 0
2019-02-15 10:41:39 GMT 50.085320 10.126722 34,000 268 434 0
2019-02-15 10:41:33 GMT 50.085880 10.152332 34,000 268 434 0
2019-02-15 10:41:20 GMT 50.087090 10.185811 34,000 268 434 0
2019-02-15 10:41:10 GMT 50.087090 10.223001 34,000 268 434 0
2019-02-15 10:40:57 GMT 50.087879 10.257890 34,000 268 434 0
2019-02-15 10:40:49 GMT 50.088997 10.285875 34,000 268 434 0
2019-02-15 10:40:43 GMT 50.089417 10.310817 34,000 269 442 0
2019-02-15 10:40:36 GMT 50.090302 10.326332 34,000 269 442 0
2019-02-15 10:40:30 GMT 50.090488 10.344964 34,000 269 442 0
2019-02-15 10:40:21 GMT 50.091419 10.375993 34,000 269 442 0
2019-02-15 10:40:16 GMT 50.091419 10.388390 34,000 269 442 0
2019-02-15 10:40:06 GMT 50.091976 10.419790 34,000 269 442 0
2019-02-15 10:39:55 GMT 50.092583 10.450373 34,000 269 442 0
2019-02-15 10:39:48 GMT 50.093418 10.478730 34,000 269 442 0
2019-02-15 10:39:39 GMT 50.093979 10.500777 34,025 269 442 0
2019-02-15 10:39:32 GMT 50.094818 10.525793 34,000 269 442 0
2019-02-15 10:39:26 GMT 50.095097 10.541827 34,000 269 442 0
2019-02-15 10:39:17 GMT 50.095608 10.569887 34,000 269 442 0
2019-02-15 10:39:03 GMT 50.096397 10.616579 34,000 269 442 0
2019-02-15 10:38:57 GMT 50.096584 10.635285 34,000 269 442 0
2019-02-15 10:38:48 GMT 50.097282 10.662900 34,000 269 442 0
2019-02-15 10:38:44 GMT 50.097797 10.681606 34,000 269 442 0
2019-02-15 10:38:31 GMT 50.098400 10.713229 34,000 269 440 0
2019-02-15 10:38:25 GMT 50.098820 10.735127 34,000 269 440 0
2019-02-15 10:38:13 GMT 50.099285 10.776994 34,000 269 440 0
2019-02-15 10:38:03 GMT 50.100079 10.806167 34,000 269 440 0
2019-02-15 10:37:53 GMT 50.100494 10.840908 34,025 269 439 0
2019-02-15 10:37:39 GMT 50.100590 10.885521 34,025 269 439 0
2019-02-15 10:37:30 GMT 50.101192 10.907123 34,025 269 449 0
2019-02-15 10:37:17 GMT 50.102406 10.970888 34,000 269 449 0
2019-02-15 10:37:11 GMT 50.102406 10.970888 34,025 269 449 0
2019-02-15 10:37:00 GMT 50.103382 11.012012 34,025 269 449 0
2019-02-15 10:36:46 GMT 50.104313 11.053211 34,025 269 449 0
2019-02-15 10:36:41 GMT 50.104500 11.066202 34,000 269 449 0
2019-02-15 10:36:26 GMT 50.105476 11.112077 34,000 269 449 0
2019-02-15 10:36:14 GMT 50.105896 11.150306 34,000 269 449 0
2019-02-15 10:36:03 GMT 50.106686 11.184973 34,000 269 449 0
2019-02-15 10:35:57 GMT 50.107292 11.207317 34,000 269 449 0
2019-02-15 10:35:43 GMT 50.107899 11.247922 34,025 269 449 0
2019-02-15 10:35:37 GMT 50.107899 11.267222 34,025 269 449 0
2019-02-15 10:35:21 GMT 50.108177 11.319036 37,100 269 449 0
2019-02-15 10:35:16 GMT 50.108318 11.331878 34,025 269 449 0
2019-02-15 10:35:02 GMT 50.109295 11.376269 34,000 269 449 0
2019-02-15 10:34:52 GMT 50.109715 11.408188 34,000 269 449 0
2019-02-15 10:34:38 GMT 50.110180 11.452876 34,025 269 449 0
2019-02-15 10:34:33 GMT 50.110317 11.471879 34,025 269 449 0
2019-02-15 10:34:27 GMT 50.110878 11.491031 34,000 269 449 0
2019-02-15 10:34:18 GMT 50.111111 11.542919 34,025 269 449 0
2019-02-15 10:34:10 GMT 50.111111 11.542919 34,025 269 449 0
2019-02-15 10:34:05 GMT 50.111389 11.558582 34,025 269 449 0
2019-02-15 10:33:58 GMT 50.111809 11.593323 34,025 269 449 0
2019-02-15 10:33:53 GMT 50.111809 11.593323 34,000 269 449 0
2019-02-15 10:33:47 GMT 50.111996 11.618413 34,000 269 449 0
2019-02-15 10:33:39 GMT 50.112411 11.637417 34,000 269 449 0
2019-02-15 10:33:31 GMT 50.113018 11.666219 34,000 269 449 0
2019-02-15 10:33:17 GMT 50.113483 11.711203 34,000 269 449 0
2019-02-15 10:33:07 GMT 50.114693 11.742381 34,000 270 446 0
2019-02-15 10:32:58 GMT 50.115997 11.774226 34,000 270 446 0
2019-02-15 10:32:48 GMT 50.116184 11.803770 34,000 270 446 0
2019-02-15 10:32:36 GMT 50.117489 11.848309 34,000 271 440 0
2019-02-15 10:32:25 GMT 50.117813 11.875775 34,000 271 440 0
2019-02-15 10:32:11 GMT 50.117023 11.919721 34,000 271 440 0
2019-02-15 10:32:05 GMT 50.117207 11.942064 34,025 271 440 0
2019-02-15 10:31:58 GMT 50.117207 11.970273 34,025 271 440 0
2019-02-15 10:31:52 GMT 50.117207 11.985490 34,025 254 444 0
2019-02-15 10:31:45 GMT 50.117023 12.004790 34,025 254 444 0
2019-02-15 10:31:35 GMT 50.117023 12.039679 34,025 254 444 0
2019-02-15 10:31:27 GMT 50.117115 12.061726 34,025 254 444 0
2019-02-15 10:31:22 GMT 50.117115 12.076721 34,025 254 444 0
2019-02-15 10:31:15 GMT 50.117489 12.102702 34,000 254 444 0
2019-02-15 10:31:09 GMT 50.117905 12.115693 34,000 254 444 0
2019-02-15 10:31:04 GMT 50.117580 12.134622 34,000 254 444 0
2019-02-15 10:30:53 GMT 50.117207 12.166616 34,000 254 444 0
2019-02-15 10:30:41 GMT 50.113392 12.217910 34,000 254 444 0
2019-02-15 10:30:30 GMT 50.110413 12.244188 34,000 254 444 0
2019-02-15 10:30:20 GMT 50.109016 12.281082 34,000 254 444 0
2019-02-15 10:30:08 GMT 50.104404 12.314189 34,000 254 444 0
2019-02-15 10:29:59 GMT 50.106316 12.342917 34,025 254 444 0
2019-02-15 10:29:45 GMT 50.107899 12.395399 34,025 233 441 0
2019-02-15 10:29:40 GMT 50.107201 12.424275 34,025 233 441 0
2019-02-15 10:29:35 GMT 50.107201 12.424275 34,000 233 441 0
2019-02-15 10:29:26 GMT 50.117813 12.476015 34,000 233 441 0
2019-02-15 10:29:21 GMT 50.117813 12.476015 34,000 233 441 0
2019-02-15 10:29:14 GMT 50.124100 12.493905 34,000 232 437 0
2019-02-15 10:29:07 GMT 50.135689 12.527680 34,000 228 450 0
2019-02-15 10:29:03 GMT 50.135689 12.527680 34,000 228 450 0
2019-02-15 10:28:54 GMT 50.146584 12.547129 34,000 228 450 0
2019-02-15 10:28:48 GMT 50.153286 12.559006 33,975 228 450 0
2019-02-15 10:28:36 GMT 50.168602 12.584468 34,000 228 450 0
2019-02-15 10:28:22 GMT 50.188107 12.618392 34,000 228 450 0
2019-02-15 10:28:17 GMT 50.197788 12.635614 34,000 228 450 0
2019-02-15 10:28:04 GMT 50.213291 12.661892 34,025 227 451 0
2019-02-15 10:27:50 GMT 50.235218 12.700270 34,000 227 451 0
2019-02-15 10:27:41 GMT 50.245178 12.716823 34,000 228 450 0
2019-02-15 10:27:34 GMT 50.256214 12.735604 34,000 228 450 0
2019-02-15 10:27:27 GMT 50.265476 12.750896 34,000 247 448 0
2019-02-15 10:27:21 GMT 50.278606 12.771978 34,000 247 448 0
2019-02-15 10:27:15 GMT 50.285912 12.784003 34,025 247 448 0
2019-02-15 10:27:08 GMT 50.294388 12.798181 34,025 247 448 0
2019-02-15 10:27:01 GMT 50.302998 12.811989 34,000 247 448 0
2019-02-15 10:26:54 GMT 50.315289 12.831586 34,000 247 448 0
2019-02-15 10:26:48 GMT 50.323715 12.845393 34,000 247 448 0
2019-02-15 10:26:41 GMT 50.333584 12.861130 34,000 247 448 0
2019-02-15 10:26:30 GMT 50.350716 12.888819 34,000 247 448 0
2019-02-15 10:26:16 GMT 50.369709 12.915691 34,025 247 448 0
2019-02-15 10:26:11 GMT 50.379482 12.932022 34,025 247 448 0
2019-02-15 10:25:58 GMT 50.394985 12.960378 34,025 247 448 0
2019-02-15 10:25:49 GMT 50.403786 12.982128 34,025 247 448 0
2019-02-15 10:25:37 GMT 50.422405 13.017388 34,025 247 448 0
2019-02-15 10:25:29 GMT 50.429806 13.036095 34,025 247 448 0
2019-02-15 10:25:22 GMT 50.438885 13.053836 34,000 247 448 0
2019-02-15 10:25:17 GMT 50.444515 13.065416 34,000 250 448 0
2019-02-15 10:25:12 GMT 50.448380 13.079966 34,000 250 448 0
2019-02-15 10:25:05 GMT 50.454388 13.103572 34,000 250 448 0
2019-02-15 10:25:00 GMT 50.458202 13.118863 34,000 250 448 0
2019-02-15 10:24:54 GMT 50.462486 13.136976 34,000 250 448 0
2019-02-15 10:24:47 GMT 50.467606 13.158800 34,000 250 450 64
2019-02-15 10:24:34 GMT 50.476589 13.194803 34,000 250 450 64
2019-02-15 10:24:21 GMT 50.485111 13.233997 34,000 250 450 64
2019-02-15 10:24:15 GMT 50.501495 13.300583 34,000 250 450 64
2019-02-15 10:24:00 GMT 50.501495 13.300583 34,025 250 450 64
2019-02-15 10:23:54 GMT 50.512714 13.346533 34,000 250 449 64
2019-02-15 10:23:40 GMT 50.516300 13.361602 34,000 250 454 0
2019-02-15 10:23:28 GMT 50.525192 13.398273 34,000 250 454 0
2019-02-15 10:23:22 GMT 50.529987 13.416385 34,000 250 454 0
2019-02-15 10:23:15 GMT 50.535805 13.440288 34,000 250 454 0
2019-02-15 10:23:09 GMT 50.539623 13.455505 34,000 250 454 0
2019-02-15 10:23:03 GMT 50.543209 13.470574 34,000 250 454 0
2019-02-15 10:22:58 GMT 50.548187 13.492027 34,000 250 454 0
2019-02-15 10:22:52 GMT 50.551121 13.504202 34,000 250 454 0
2019-02-15 10:22:44 GMT 50.562992 13.554234 34,000 250 454 0
2019-02-15 10:22:39 GMT 50.562992 13.554234 34,000 250 454 0
2019-02-15 10:22:32 GMT 50.566624 13.568635 34,000 250 454 0
2019-02-15 10:22:26 GMT 50.570210 13.583927 34,000 250 454 0
2019-02-15 10:22:18 GMT 50.576817 13.611615 34,000 250 454 0
2019-02-15 10:22:06 GMT 50.586315 13.648286 34,000 250 454 0
2019-02-15 10:21:57 GMT 50.590782 13.673822 34,000 250 454 0
2019-02-15 10:21:43 GMT 50.605495 13.735508 34,000 250 454 0
2019-02-15 10:21:37 GMT 50.605495 13.735508 34,000 250 454 0
2019-02-15 10:21:28 GMT 50.612476 13.764904 34,000 250 454 0
2019-02-15 10:21:22 GMT 50.618111 13.789178 34,000 250 454 0
2019-02-15 10:21:13 GMT 50.622578 13.807810 34,000 249 447 0
2019-02-15 10:21:01 GMT 50.631702 13.848489 34,000 249 447 0
2019-02-15 10:20:50 GMT 50.638920 13.878999 34,000 249 447 0
2019-02-15 10:20:36 GMT 50.650093 13.925319 34,000 249 447 0
2019-02-15 10:20:27 GMT 50.656189 13.949519 34,000 249 447 0
2019-02-15 10:20:20 GMT 50.662613 13.977430 34,000 249 447 0
2019-02-15 10:20:13 GMT 50.675091 14.032288 34,000 249 447 0
2019-02-15 10:20:01 GMT 50.683285 14.066772 34,000 249 447 0
2019-02-15 10:19:51 GMT 50.683285 14.066772 34,000 249 447 0
2019-02-15 10:19:37 GMT 50.693108 14.109726 34,000 249 447 0
We lost coverage of the aircraft here for a total of 11 minutes
2019-02-15 10:08:29 GMT 51.176178 16.165466 34,025 249 447 0
We lost coverage of the aircraft here for a total of 6 minutes
2019-02-15 10:02:39 GMT 51.441620 17.255173 34,000 284 230 2112
We lost coverage of the aircraft here for a total of 15 minutes
2019-02-15 09:47:36 GMT 52.075520 20.099566 14,225 284 230 2112
2019-02-15 09:47:25 GMT 52.081108 20.127502 13,725 284 230 2112
2019-02-15 09:47:10 GMT 52.090000 20.174507 13,225 284 230 2112
2019-02-15 09:47:04 GMT 52.092793 20.189260 12,750 284 230 2112
2019-02-15 09:46:53 GMT 52.098518 20.218218 12,375 284 230 2112
2019-02-15 09:46:41 GMT 52.105316 20.253923 11,125 284 230 2112
2019-02-15 09:46:33 GMT 52.110107 20.274485 11,575 284 230 2112
2019-02-15 09:46:21 GMT 52.120304 20.331299 11,375 284 230 2112
2019-02-15 09:46:10 GMT 52.120304 20.331299 11,125 284 230 2112
2019-02-15 09:46:00 GMT 52.124401 20.354136 10,975 284 230 2112
2019-02-15 09:45:51 GMT 52.128078 20.373674 10,800 284 230 2112

Making use of Plane Finder data

You are free to use the raw flight data, aircraft information and images provided in this report for your own purposes provided the data is correctly attributed to Plane Finder. We ask that you please credit Plane Finder and link to planefinder.net in close proximity to the content.

Optionally one of the following logos (no smaller then 150x24px) can be used and must link to planefinder.net

Embedding the Plane Finder map

You are welcome to embed the Plane Finder playback map on your website to offer visitors a more interactive experience. We suggest using the following HTML code:

<iframe src="//planefinder.net/data/report/OR323-PH-OYI-7700-squawk-2019-02-15/map" width="800" height="600" seamless="seamless"></iframe>

Where our data comes from

Plane Finder has a global network of data feeds and antenna radars that receive data broadcast directly from aircraft. The primary technologies used are ADS-B and MLAT. We also show feeds from the FAA and a FLARM glider feed.

Click here to find out more about the Plane Finder network.

How we collect our data